Time;durP1;ratioP1;P1;durP2;ratioP2;P2;SDS_P1;SDS_P2;PMS_P1;PMS_P2;Temp;Humidity;BMP_temperature;BMP_pressure;BME280_temperature;BME280_humidity;BME280_pressure;Samples;Min_cycle;Max_cycle;Signal;HPM_P1;HPM_P2
2021/10/24 00:01:04;;;;;;;3.65;2.08;;;12.40;91.10;;;;;;5080985;28;20079;-59
2021/10/24 00:03:31;;;;;;;2.90;1.80;;;12.40;90.80;;;;;;5078633;28;20063;-59
2021/10/24 00:05:59;;;;;;;5.85;2.33;;;12.40;90.80;;;;;;5080502;28;20097;-59
2021/10/24 00:08:29;;;;;;;4.07;1.65;;;12.40;91.00;;;;;;5079309;28;20108;-59
2021/10/24 00:10:56;;;;;;;3.55;1.50;;;12.40;90.80;;;;;;5085626;28;20649;-59
2021/10/24 00:13:23;;;;;;;5.97;1.63;;;12.40;90.90;;;;;;5081313;28;20059;-59
2021/10/24 00:15:53;;;;;;;4.47;1.60;;;12.40;91.00;;;;;;5083544;28;20488;-58
2021/10/24 00:18:23;;;;;;;4.20;1.67;;;12.40;90.60;;;;;;5083588;28;20135;-58
2021/10/24 00:20:50;;;;;;;5.97;1.67;;;12.40;90.60;;;;;;5085227;28;20052;-58
2021/10/24 00:23:17;;;;;;;3.55;1.70;;;12.40;90.80;;;;;;5084165;28;20059;-58
2021/10/24 00:25:44;;;;;;;9.10;1.85;;;12.40;91.00;;;;;;5084546;28;20048;-59
2021/10/24 00:28:11;;;;;;;6.75;1.77;;;12.40;90.60;;;;;;5082864;28;20075;-58
2021/10/24 00:30:46;;;;;;;5.55;1.83;;;12.40;91.10;;;;;;5084854;28;20473;-58
2021/10/24 00:33:13;;;;;;;4.50;1.63;;;12.40;91.00;;;;;;5083563;28;21562;-58
2021/10/24 00:35:40;;;;;;;3.95;1.63;;;12.40;90.60;;;;;;5084503;28;20087;-58
2021/10/24 00:38:07;;;;;;;5.25;1.65;;;12.40;90.60;;;;;;5084552;28;20090;-58
2021/10/24 00:40:34;;;;;;;5.05;2.08;;;12.40;91.20;;;;;;5084131;28;20060;-58
2021/10/24 00:43:01;;;;;;;3.53;1.65;;;12.40;90.40;;;;;;5083311;28;20154;-58
2021/10/24 00:45:28;;;;;;;2.83;1.42;;;12.40;90.90;;;;;;5083803;28;20047;-58
2021/10/24 00:47:55;;;;;;;3.05;1.33;;;12.40;90.80;;;;;;5080591;28;20139;-58
2021/10/24 00:50:23;;;;;;;4.13;1.50;;;12.40;91.00;;;;;;5081983;28;20048;-58
2021/10/24 00:52:52;;;;;;;3.75;1.25;;;12.40;90.70;;;;;;5084735;28;20072;-58
2021/10/24 00:55:20;;;;;;;3.40;1.50;;;12.40;90.60;;;;;;5082688;28;20139;-58
2021/10/24 00:57:47;;;;;;;4.35;1.55;;;12.40;91.10;;;;;;5084157;28;20079;-58
2021/10/24 01:00:14;;;;;;;5.55;1.40;;;12.40;90.90;;;;;;5065426;28;20126;-58
2021/10/24 01:02:43;;;;;;;6.18;1.80;;;12.40;90.70;;;;;;5083652;28;20754;-57
2021/10/24 01:05:10;;;;;;;3.28;1.38;;;12.40;91.10;;;;;;5083516;28;20051;-58
2021/10/24 01:07:39;;;;;;;2.60;1.10;;;12.40;91.10;;;;;;5083948;28;20079;-58
2021/10/24 01:10:07;;;;;;;3.38;1.27;;;12.40;91.00;;;;;;5084238;28;20127;-58
2021/10/24 01:12:36;;;;;;;5.88;1.67;;;12.40;91.10;;;;;;5083717;28;20507;-58
2021/10/24 01:15:04;;;;;;;3.38;1.50;;;12.40;91.40;;;;;;5064524;28;20129;-58
2021/10/24 01:17:31;;;;;;;4.82;1.75;;;12.40;91.20;;;;;;5082957;28;20075;-58
2021/10/24 01:19:58;;;;;;;6.15;1.60;;;12.40;91.20;;;;;;5081471;28;20632;-58
2021/10/24 01:22:26;;;;;;;4.20;1.55;;;12.40;91.00;;;;;;5084553;28;20086;-58
2021/10/24 01:24:55;;;;;;;4.47;1.60;;;12.40;91.30;;;;;;5082881;28;20101;-58
2021/10/24 01:27:22;;;;;;;2.13;1.17;;;12.40;91.50;;;;;;5083423;28;20091;-58
2021/10/24 01:29:51;;;;;;;2.45;1.50;;;12.40;91.30;;;;;;5079124;28;20075;-58
2021/10/24 01:32:18;;;;;;;3.88;1.92;;;12.40;91.20;;;;;;5084229;28;20593;-58
2021/10/24 01:34:48;;;;;;;5.07;1.48;;;12.40;91.00;;;;;;5083925;28;20484;-58
2021/10/24 01:37:15;;;;;;;6.63;1.58;;;12.40;91.20;;;;;;5085388;28;20473;-58
2021/10/24 01:39:42;;;;;;;5.15;1.83;;;12.40;91.10;;;;;;5085032;28;20059;-58
2021/10/24 01:42:09;;;;;;;2.88;1.40;;;12.40;91.20;;;;;;5085489;28;20123;-58
2021/10/24 01:44:38;;;;;;;3.70;1.40;;;12.40;91.20;;;;;;5083913;28;20048;-58
2021/10/24 01:47:05;;;;;;;4.25;1.65;;;12.40;91.20;;;;;;5084081;28;20126;-59
2021/10/24 01:49:32;;;;;;;4.38;1.50;;;12.40;91.00;;;;;;5086007;28;20114;-58
2021/10/24 01:52:05;;;;;;;4.53;1.38;;;12.40;91.40;;;;;;5087611;28;20461;-59
2021/10/24 01:54:31;;;;;;;2.92;1.42;;;12.40;91.40;;;;;;5087001;28;20123;-58
2021/10/24 01:56:58;;;;;;;5.75;2.65;;;12.30;91.50;;;;;;5085829;28;20147;-58
2021/10/24 01:59:25;;;;;;;4.60;1.90;;;12.30;91.70;;;;;;5082257;28;20143;-58
2021/10/24 02:01:52;;;;;;;8.25;2.28;;;12.30;91.50;;;;;;5086172;28;20131;-58
2021/10/24 02:04:19;;;;;;;3.88;1.45;;;12.30;91.40;;;;;;5085357;28;20105;-58
2021/10/24 02:06:45;;;;;;;7.05;1.55;;;12.30;91.50;;;;;;5086439;28;20056;-58
2021/10/24 02:09:12;;;;;;;3.53;1.35;;;12.30;91.70;;;;;;5085437;28;20471;-58
2021/10/24 02:11:39;;;;;;;3.67;1.52;;;12.30;91.50;;;;;;5086069;28;20139;-58
2021/10/24 02:14:06;;;;;;;5.13;1.50;;;12.20;91.80;;;;;;5085548;28;20040;-58
2021/10/24 02:16:33;;;;;;;4.95;1.67;;;12.20;91.60;;;;;;5086354;28;20111;-59
2021/10/24 02:19:02;;;;;;;4.30;1.40;;;12.20;91.70;;;;;;5085283;28;20600;-59
2021/10/24 02:21:28;;;;;;;4.32;1.20;;;12.20;91.70;;;;;;5086406;28;20127;-58
2021/10/24 02:23:55;;;;;;;4.93;1.48;;;12.20;91.60;;;;;;5084284;28;20492;-58
2021/10/24 02:26:22;;;;;;;4.88;1.80;;;12.20;91.70;;;;;;5086055;28;20087;-58
2021/10/24 02:28:49;;;;;;;4.88;1.33;;;12.20;91.80;;;;;;5084517;28;20128;-58
2021/10/24 02:31:15;;;;;;;3.72;1.88;;;12.20;91.70;;;;;;5086309;28;20126;-58
2021/10/24 02:33:42;;;;;;;4.00;1.50;;;12.20;91.80;;;;;;5085437;28;20048;-58
2021/10/24 02:36:09;;;;;;;3.30;1.20;;;12.20;91.80;;;;;;5085380;28;20150;-58
2021/10/24 02:38:38;;;;;;;4.90;1.58;;;12.20;91.90;;;;;;5081620;28;20097;-57
2021/10/24 02:41:05;;;;;;;6.38;1.60;;;12.20;91.60;;;;;;5086284;28;20044;-59
2021/10/24 02:43:32;;;;;;;4.55;1.40;;;12.20;91.60;;;;;;5084163;28;20738;-58
2021/10/24 02:45:59;;;;;;;3.38;1.33;;;12.20;91.70;;;;;;5085810;28;20070;-58
2021/10/24 02:48:26;;;;;;;4.60;1.58;;;12.20;91.50;;;;;;5084681;28;20193;-58
2021/10/24 02:50:53;;;;;;;4.13;1.63;;;12.20;91.40;;;;;;5085114;28;20150;-58
2021/10/24 02:53:19;;;;;;;2.95;1.10;;;12.20;91.60;;;;;;5083933;28;20146;-58
2021/10/24 02:55:46;;;;;;;3.58;1.83;;;12.20;91.50;;;;;;5083658;28;20142;-59
2021/10/24 02:58:13;;;;;;;7.10;1.35;;;12.20;91.50;;;;;;5084652;28;20143;-59
2021/10/24 03:00:40;;;;;;;3.50;1.55;;;12.20;91.70;;;;;;5084350;28;20603;-59
2021/10/24 03:03:07;;;;;;;2.17;1.20;;;12.20;91.50;;;;;;5085063;28;20144;-59
2021/10/24 03:05:34;;;;;;;4.50;1.52;;;12.20;91.30;;;;;;5085793;28;20064;-59
2021/10/24 03:08:01;;;;;;;7.28;1.90;;;12.20;91.10;;;;;;5085826;28;20159;-59
2021/10/24 03:10:28;;;;;;;3.35;1.48;;;12.10;91.50;;;;;;5085739;28;20080;-59
2021/10/24 03:12:54;;;;;;;4.07;1.38;;;12.20;91.20;;;;;;5085450;28;20644;-59
2021/10/24 03:15:21;;;;;;;4.47;1.42;;;12.20;91.30;;;;;;5084862;28;20145;-59
2021/10/24 03:17:48;;;;;;;3.25;1.10;;;12.20;91.20;;;;;;5085005;28;20428;-59
2021/10/24 03:20:14;;;;;;;5.47;1.48;;;12.20;91.30;;;;;;5085812;28;20159;-59
2021/10/24 03:22:41;;;;;;;3.78;1.13;;;12.10;91.30;;;;;;5084308;28;20067;-59
2021/10/24 03:25:08;;;;;;;5.00;1.30;;;12.10;91.50;;;;;;5084939;28;20139;-59
2021/10/24 03:27:35;;;;;;;3.45;1.25;;;12.10;91.10;;;;;;5085481;28;20079;-59
2021/10/24 03:30:01;;;;;;;5.75;1.27;;;12.10;91.40;;;;;;5082585;28;20630;-59
2021/10/24 03:32:28;;;;;;;3.60;1.17;;;12.10;91.60;;;;;;5084970;28;20064;-58
2021/10/24 03:34:55;;;;;;;5.03;1.70;;;12.10;91.10;;;;;;5084349;28;20052;-59
2021/10/24 03:37:22;;;;;;;3.33;1.27;;;12.10;91.60;;;;;;5085334;28;20067;-58
2021/10/24 03:39:51;;;;;;;2.35;1.23;;;12.10;91.10;;;;;;5085667;28;20692;-59
2021/10/24 03:42:17;;;;;;;3.20;1.25;;;12.10;91.50;;;;;;5085471;28;20123;-59
2021/10/24 03:44:44;;;;;;;3.85;1.30;;;12.10;91.00;;;;;;5084351;28;20745;-58
2021/10/24 03:47:11;;;;;;;3.13;1.38;;;12.10;91.20;;;;;;5084785;28;20080;-59
2021/10/24 03:49:38;;;;;;;6.07;2.05;;;12.10;91.30;;;;;;5085495;28;20090;-58
2021/10/24 03:52:05;;;;;;;3.72;1.30;;;12.10;91.30;;;;;;5085957;28;20078;-59
2021/10/24 03:54:33;;;;;;;3.05;1.20;;;12.10;91.10;;;;;;5085424;28;20068;-58
2021/10/24 03:57:00;;;;;;;3.67;1.40;;;12.10;90.90;;;;;;5085210;28;20084;-59
2021/10/24 03:59:27;;;;;;;7.20;1.55;;;12.10;91.30;;;;;;5082367;28;20072;-58
2021/10/24 04:01:54;;;;;;;2.97;1.33;;;12.20;91.10;;;;;;5079875;28;20790;-59
2021/10/24 04:04:21;;;;;;;3.20;1.15;;;12.20;91.40;;;;;;5082886;28;20070;-59
2021/10/24 04:06:47;;;;;;;1.40;0.98;;;12.20;91.30;;;;;;5073793;28;20083;-58
2021/10/24 04:09:14;;;;;;;4.18;1.50;;;12.20;91.20;;;;;;5081501;28;20127;-59
2021/10/24 04:11:41;;;;;;;7.93;1.52;;;12.20;91.20;;;;;;5082145;28;20085;-59
2021/10/24 04:14:10;;;;;;;1.92;1.20;;;12.20;91.10;;;;;;5080180;28;20192;-58
2021/10/24 04:16:37;;;;;;;4.80;1.27;;;12.20;91.40;;;;;;5081203;28;20048;-59
2021/10/24 04:19:04;;;;;;;5.13;1.35;;;12.20;91.20;;;;;;5082762;28;20119;-59
2021/10/24 04:21:31;;;;;;;5.65;1.38;;;12.20;91.30;;;;;;5081385;28;20127;-59
2021/10/24 04:23:58;;;;;;;2.38;1.15;;;12.20;91.40;;;;;;5082439;28;20194;-59
2021/10/24 04:26:24;;;;;;;4.72;1.35;;;12.20;91.20;;;;;;5082278;28;20131;-58
2021/10/24 04:28:51;;;;;;;5.97;1.50;;;12.20;91.10;;;;;;5081718;28;20090;-59
2021/10/24 04:31:19;;;;;;;4.25;1.80;;;12.20;91.10;;;;;;5082394;28;20462;-59
2021/10/24 04:33:46;;;;;;;3.40;1.40;;;12.20;91.10;;;;;;5080292;28;20093;-59
2021/10/24 04:36:13;;;;;;;2.88;1.10;;;12.20;91.30;;;;;;5081202;28;20075;-59
2021/10/24 04:38:39;;;;;;;4.35;1.20;;;12.20;91.30;;;;;;5082594;28;20133;-58
2021/10/24 04:41:06;;;;;;;3.35;1.55;;;12.20;91.70;;;;;;5082913;28;20101;-59
2021/10/24 04:43:33;;;;;;;7.88;1.00;;;12.20;91.50;;;;;;5079785;28;20086;-59
2021/10/24 04:46:00;;;;;;;5.97;2.15;;;12.20;91.40;;;;;;5080688;28;20529;-59
2021/10/24 04:48:27;;;;;;;2.53;1.35;;;12.20;91.70;;;;;;5080818;28;20058;-59
2021/10/24 04:50:54;;;;;;;5.22;1.55;;;12.20;91.20;;;;;;5082407;28;20127;-59
2021/10/24 04:53:21;;;;;;;4.45;1.40;;;12.20;91.50;;;;;;5080916;28;20087;-59
2021/10/24 04:55:50;;;;;;;3.42;1.52;;;12.20;91.70;;;;;;5086094;28;20054;-59
2021/10/24 04:58:17;;;;;;;2.10;1.17;;;12.20;91.10;;;;;;5084138;28;20083;-59
2021/10/24 05:00:44;;;;;;;5.03;1.10;;;12.20;91.00;;;;;;5086775;28;20075;-59
2021/10/24 05:03:11;;;;;;;3.53;1.30;;;12.20;91.10;;;;;;5082320;28;20048;-59
2021/10/24 05:05:40;;;;;;;2.25;1.17;;;12.20;91.00;;;;;;5083760;28;20392;-59
2021/10/24 05:08:07;;;;;;;3.60;1.38;;;12.20;91.10;;;;;;5083941;28;20455;-59
2021/10/24 05:10:34;;;;;;;2.70;1.30;;;12.20;91.10;;;;;;5083947;28;20127;-59
2021/10/24 05:13:01;;;;;;;3.45;1.35;;;12.20;91.20;;;;;;5083018;28;20091;-58
2021/10/24 05:15:27;;;;;;;3.65;1.15;;;12.20;91.40;;;;;;5083588;28;20523;-58
2021/10/24 05:17:54;;;;;;;3.83;1.02;;;12.20;90.80;;;;;;5081736;28;20063;-58
2021/10/24 05:20:21;;;;;;;3.22;1.40;;;12.20;90.80;;;;;;5082537;28;20075;-58
2021/10/24 05:22:48;;;;;;;4.28;2.00;;;12.20;91.10;;;;;;5082107;28;20052;-57
2021/10/24 05:25:15;;;;;;;4.93;1.42;;;12.20;91.30;;;;;;5083412;28;20529;-58
2021/10/24 05:27:42;;;;;;;2.67;1.13;;;12.20;91.10;;;;;;5082074;28;20109;-58
2021/10/24 05:30:09;;;;;;;5.75;1.63;;;12.20;91.20;;;;;;5082680;28;20539;-58
2021/10/24 05:32:39;;;;;;;3.42;1.25;;;12.20;91.40;;;;;;5082541;28;20079;-58
2021/10/24 05:35:06;;;;;;;5.78;1.30;;;12.20;91.10;;;;;;5083516;28;20091;-58
2021/10/24 05:37:32;;;;;;;5.05;1.33;;;12.20;91.20;;;;;;5082228;28;20079;-58
2021/10/24 05:39:59;;;;;;;4.22;1.45;;;12.20;91.00;;;;;;5082743;28;20070;-58
2021/10/24 05:42:26;;;;;;;5.85;1.40;;;12.20;91.40;;;;;;5082720;28;20539;-58
2021/10/24 05:44:53;;;;;;;2.78;1.40;;;12.20;91.10;;;;;;5082213;28;20044;-58
2021/10/24 05:47:19;;;;;;;7.68;1.40;;;12.20;91.60;;;;;;5061401;28;20079;-58
2021/10/24 05:49:48;;;;;;;4.97;1.20;;;12.20;91.40;;;;;;5082232;28;20131;-58
2021/10/24 05:52:15;;;;;;;4.55;1.25;;;12.20;91.40;;;;;;5081486;28;20683;-58
2021/10/24 05:54:42;;;;;;;2.88;1.42;;;12.20;91.50;;;;;;5081696;28;20086;-59
2021/10/24 05:57:09;;;;;;;6.60;1.60;;;12.10;91.60;;;;;;5081632;28;20056;-58
2021/10/24 05:59:36;;;;;;;3.45;1.52;;;12.10;91.30;;;;;;5080329;28;20132;-58
2021/10/24 06:02:03;;;;;;;6.15;2.08;;;12.10;91.40;;;;;;5080572;28;20044;-58
2021/10/24 06:04:30;;;;;;;6.20;1.52;;;12.10;91.70;;;;;;5082047;28;20119;-58
2021/10/24 06:06:57;;;;;;;7.63;1.60;;;12.10;91.70;;;;;;5081611;28;20083;-58
2021/10/24 06:09:41;;;;;;;3.88;1.55;;;12.10;91.80;;;;;;5079729;28;20127;-58
2021/10/24 06:12:13;;;;;;;4.45;1.48;;;12.10;91.80;;;;;;5078605;28;20048;-58
2021/10/24 06:14:40;;;;;;;4.45;1.60;;;12.20;91.60;;;;;;5078148;28;20540;-58
2021/10/24 06:17:12;;;;;;;2.45;1.25;;;12.20;91.70;;;;;;5080730;28;20506;-58
2021/10/24 06:19:39;;;;;;;3.88;1.38;;;12.20;91.40;;;;;;5079873;28;20823;-58
2021/10/24 06:22:08;;;;;;;5.72;1.30;;;12.10;91.70;;;;;;5080808;28;20168;-58
2021/10/24 06:24:35;;;;;;;4.75;1.70;;;12.10;91.60;;;;;;5081847;28;20079;-57
2021/10/24 06:27:01;;;;;;;5.30;1.50;;;12.10;91.70;;;;;;5081494;28;20042;-58
2021/10/24 06:29:28;;;;;;;4.95;1.52;;;12.10;91.80;;;;;;5080671;28;20638;-58
2021/10/24 06:31:55;;;;;;;4.53;1.30;;;12.10;91.90;;;;;;5078845;28;20135;-58
2021/10/24 06:34:22;;;;;;;4.55;1.40;;;12.10;91.50;;;;;;5082360;28;20131;-58
2021/10/24 06:36:52;;;;;;;4.22;1.35;;;12.10;91.80;;;;;;5080438;28;20051;-58
2021/10/24 06:39:19;;;;;;;5.03;1.30;;;12.10;91.90;;;;;;5082491;28;20385;-58
2021/10/24 06:41:45;;;;;;;7.63;1.73;;;12.10;91.80;;;;;;5081921;28;20135;-58
2021/10/24 06:44:12;;;;;;;6.65;1.80;;;12.10;91.70;;;;;;5081092;28;20131;-58
2021/10/24 06:46:39;;;;;;;3.60;1.45;;;12.10;91.50;;;;;;5080548;28;20048;-58
2021/10/24 06:49:06;;;;;;;6.20;1.70;;;12.10;91.60;;;;;;5082069;28;20138;-58
2021/10/24 06:51:33;;;;;;;6.32;1.42;;;12.10;91.40;;;;;;5081637;28;20142;-57
2021/10/24 06:54:00;;;;;;;3.53;1.40;;;12.10;91.70;;;;;;5081362;28;20639;-58
2021/10/24 06:56:26;;;;;;;5.43;1.40;;;12.10;91.50;;;;;;5081209;28;20170;-59
2021/10/24 06:58:53;;;;;;;6.78;1.40;;;12.20;91.70;;;;;;5080026;28;20127;-58
2021/10/24 07:01:20;;;;;;;16.17;1.75;;;12.20;91.50;;;;;;5079687;28;20090;-58
2021/10/24 07:03:47;;;;;;;10.00;6.18;;;12.20;91.40;;;;;;5073969;28;20045;-58
2021/10/24 07:06:17;;;;;;;4.18;1.95;;;12.20;91.70;;;;;;5072293;28;20161;-58
2021/10/24 07:08:44;;;;;;;9.23;3.33;;;12.20;91.10;;;;;;5078183;28;20438;-58
2021/10/24 07:11:11;;;;;;;5.20;2.85;;;12.20;91.20;;;;;;5078781;28;20131;-58
2021/10/24 07:13:40;;;;;;;3.33;1.55;;;12.30;91.10;;;;;;5076239;28;20048;-58
2021/10/24 07:16:07;;;;;;;8.52;4.45;;;12.30;91.10;;;;;;5079501;28;20057;-58
2021/10/24 07:18:34;;;;;;;7.72;3.08;;;12.30;91.30;;;;;;5075953;28;20453;-56
2021/10/24 07:21:01;;;;;;;3.95;1.90;;;12.30;91.20;;;;;;5079538;28;20067;-58
2021/10/24 07:23:27;;;;;;;4.85;1.40;;;12.40;91.10;;;;;;5078049;28;20123;-58
2021/10/24 07:25:54;;;;;;;2.03;1.17;;;12.40;90.70;;;;;;5079515;28;20098;-58
2021/10/24 07:28:21;;;;;;;7.28;1.70;;;12.40;91.20;;;;;;5079519;28;20044;-58
2021/10/24 07:30:48;;;;;;;5.38;1.60;;;12.40;91.30;;;;;;5078484;28;20048;-58
2021/10/24 07:33:14;;;;;;;3.95;1.27;;;12.40;91.00;;;;;;5079514;28;20051;-58
2021/10/24 07:35:41;;;;;;;3.50;1.20;;;12.50;91.20;;;;;;5081236;28;20051;-57
2021/10/24 07:38:14;;;;;;;5.55;1.63;;;12.50;91.10;;;;;;5079775;28;20559;-57
2021/10/24 07:40:42;;;;;;;4.78;1.50;;;12.50;91.20;;;;;;5079873;28;20059;-58
2021/10/24 07:43:09;;;;;;;4.55;1.80;;;12.60;91.10;;;;;;5080069;28;20588;-60
2021/10/24 07:45:36;;;;;;;2.53;1.67;;;12.60;90.70;;;;;;5080593;28;20068;-58
2021/10/24 07:48:04;;;;;;;4.45;1.33;;;12.60;91.30;;;;;;5079090;28;20131;-58
2021/10/24 07:50:31;;;;;;;9.35;1.65;;;12.60;91.30;;;;;;5079799;28;20916;-58
2021/10/24 07:53:01;;;;;;;5.03;1.70;;;12.70;91.30;;;;;;5079969;28;20051;-58
2021/10/24 07:55:28;;;;;;;8.32;1.38;;;12.70;91.10;;;;;;5081149;28;20522;-58
2021/10/24 07:57:56;;;;;;;8.07;1.83;;;12.80;91.00;;;;;;5080484;28;20135;-58
2021/10/24 08:00:27;;;;;;;4.22;2.13;;;12.80;90.90;;;;;;5078124;28;20052;-59
2021/10/24 08:02:54;;;;;;;5.20;2.13;;;12.80;90.80;;;;;;5079994;28;20040;-58
2021/10/24 08:05:20;;;;;;;5.50;1.20;;;12.80;90.70;;;;;;5081253;28;20526;-58
2021/10/24 08:07:47;;;;;;;2.70;1.40;;;12.90;90.80;;;;;;5080869;28;20123;-58
2021/10/24 08:10:15;;;;;;;5.57;1.60;;;12.90;90.80;;;;;;5081346;28;20090;-58
2021/10/24 08:12:42;;;;;;;4.75;1.73;;;13.10;90.60;;;;;;5080853;28;20087;-58
2021/10/24 08:15:09;;;;;;;4.65;1.63;;;13.10;90.10;;;;;;5080335;28;20048;-59
2021/10/24 08:17:37;;;;;;;3.35;1.35;;;13.10;90.00;;;;;;5080783;28;20666;-58
2021/10/24 08:20:06;;;;;;;4.50;1.40;;;13.20;90.20;;;;;;5080598;28;20095;-58
2021/10/24 08:22:33;;;;;;;2.58;1.55;;;13.20;89.70;;;;;;5078206;28;20972;-59
2021/10/24 08:25:00;;;;;;;6.65;1.60;;;13.30;90.20;;;;;;5078727;28;20047;-59
2021/10/24 08:27:29;;;;;;;4.63;1.70;;;13.30;89.90;;;;;;5080425;28;20214;-59
2021/10/24 08:29:57;;;;;;;11.57;7.82;;;13.40;89.80;;;;;;5078740;28;20478;-59
2021/10/24 08:32:24;;;;;;;6.70;2.10;;;13.50;90.10;;;;;;5083148;28;20147;-59
2021/10/24 08:34:51;;;;;;;24.52;17.15;;;13.50;89.70;;;;;;5083184;28;20060;-58
2021/10/24 08:37:19;;;;;;;5.85;3.00;;;13.60;89.90;;;;;;5084240;28;20294;-59
2021/10/24 08:39:52;;;;;;;6.28;2.38;;;13.60;88.80;;;;;;5084621;28;20037;-59
2021/10/24 08:42:26;;;;;;;;;;;13.70;88.60;;;;;;5083988;28;20473;-58
2021/10/24 08:44:54;;;;;;;7.15;1.60;;;13.70;87.10;;;;;;5076912;28;19982;-58
2021/10/24 08:47:22;;;;;;;3.10;1.65;;;13.80;87.70;;;;;;5080717;28;20193;-58
2021/10/24 08:49:48;;;;;;;3.55;1.80;;;13.80;88.10;;;;;;5080561;28;20090;-58
2021/10/24 08:52:15;;;;;;;2.53;1.13;;;13.90;88.10;;;;;;5079548;28;20417;-59
2021/10/24 08:54:42;;;;;;;3.25;1.42;;;14.00;87.80;;;;;;5080322;28;20461;-59
2021/10/24 08:57:09;;;;;;;4.32;1.30;;;13.90;86.60;;;;;;5081271;28;20135;-59
2021/10/24 08:59:39;;;;;;;2.78;1.23;;;13.90;87.00;;;;;;5080360;28;20123;-58
2021/10/24 09:02:06;;;;;;;4.78;1.92;;;14.00;87.40;;;;;;5079715;28;20642;-59
2021/10/24 09:04:33;;;;;;;3.53;1.20;;;14.00;87.20;;;;;;5079719;28;20171;-59
2021/10/24 09:07:01;;;;;;;5.85;1.38;;;14.00;87.10;;;;;;5062166;28;20050;-59
2021/10/24 09:09:30;;;;;;;4.25;1.27;;;14.00;86.40;;;;;;5080235;28;20055;-59
2021/10/24 09:12:02;;;;;;;3.05;1.38;;;14.00;86.30;;;;;;5078879;28;20173;-59
2021/10/24 09:14:48;;;;;;;3.72;1.23;;;14.00;86.40;;;;;;5076567;28;20372;-58
2021/10/24 09:17:31;;;;;;;5.50;1.95;;;14.10;86.10;;;;;;5078938;28;20094;-58
2021/10/24 09:20:03;;;;;;;4.70;1.15;;;14.10;86.50;;;;;;5077331;28;20439;-58
2021/10/24 09:22:36;;;;;;;5.28;1.30;;;14.20;84.90;;;;;;5079749;28;20519;-58
2021/10/24 09:25:19;;;;;;;11.00;1.73;;;14.20;86.00;;;;;;5079612;28;20565;-59
2021/10/24 09:27:57;;;;;;;13.90;5.07;;;14.20;84.90;;;;;;5077591;28;20570;-58
2021/10/24 09:30:25;;;;;;;2.75;1.33;;;14.20;85.60;;;;;;5077399;28;20144;-58
2021/10/24 09:32:56;;;;;;;4.07;1.45;;;14.20;85.10;;;;;;5077292;28;20047;-58
2021/10/24 09:35:31;;;;;;;3.78;1.30;;;14.10;84.60;;;;;;5079416;28;20071;-58
2021/10/24 09:38:02;;;;;;;4.32;1.10;;;14.10;84.40;;;;;;5075825;28;20131;-59
2021/10/24 09:40:31;;;;;;;2.80;1.17;;;14.10;84.00;;;;;;5079358;28;20127;-58
2021/10/24 09:43:12;;;;;;;3.92;1.40;;;14.00;83.30;;;;;;5078697;28;20562;-58
2021/10/24 09:45:42;;;;;;;2.63;1.13;;;13.90;84.50;;;;;;5079003;28;20047;-58
2021/10/24 09:48:10;;;;;;;3.90;1.33;;;13.90;84.00;;;;;;5078407;28;20143;-58
2021/10/24 09:50:41;;;;;;;4.18;1.30;;;13.90;83.80;;;;;;5079382;28;20087;-59
2021/10/24 09:53:12;;;;;;;6.00;1.50;;;13.90;85.10;;;;;;5080312;28;20232;-58
2021/10/24 09:55:40;;;;;;;6.32;1.08;;;13.80;85.30;;;;;;5078883;28;20078;-58
2021/10/24 09:58:07;;;;;;;4.72;1.17;;;13.80;86.40;;;;;;5078477;28;20051;-59
2021/10/24 10:00:34;;;;;;;8.23;2.15;;;13.80;86.20;;;;;;5079769;28;20166;-59
2021/10/24 10:03:01;;;;;;;4.32;1.30;;;13.70;86.10;;;;;;5070868;28;20059;-59
2021/10/24 10:05:28;;;;;;;3.53;1.40;;;13.60;86.00;;;;;;5060337;28;20134;-58
2021/10/24 10:07:55;;;;;;;2.35;1.23;;;13.50;86.60;;;;;;5077251;28;20143;-59
2021/10/24 10:10:22;;;;;;;2.28;1.10;;;13.50;87.30;;;;;;5077971;28;20086;-59
2021/10/24 10:12:50;;;;;;;3.90;1.40;;;13.50;86.90;;;;;;5060432;28;20055;-58
2021/10/24 10:15:19;;;;;;;4.82;1.55;;;13.50;86.90;;;;;;5055618;28;20127;-59
2021/10/24 10:17:48;;;;;;;4.30;1.25;;;13.60;86.80;;;;;;5076103;28;20667;-58
2021/10/24 10:20:44;;;;;;;3.92;1.38;;;13.60;86.80;;;;;;5059586;28;20052;-59
2021/10/24 10:23:14;;;;;;;3.05;1.30;;;13.70;86.90;;;;;;5067417;28;20143;-59
2021/10/24 10:25:45;;;;;;;4.07;1.25;;;13.90;87.90;;;;;;5075913;28;20524;-59
2021/10/24 10:28:47;;;;;;;4.20;1.50;;;14.10;85.00;;;;;;5075083;28;20079;-58
2021/10/24 10:31:15;;;;;;;7.90;2.83;;;14.20;85.90;;;;;;5076335;28;20079;-59
2021/10/24 10:34:01;;;;;;;3.63;1.35;;;14.40;85.40;;;;;;5074820;28;20407;-59
2021/10/24 10:36:49;;;;;;;4.72;1.40;;;14.50;83.70;;;;;;5077788;28;20052;-59
2021/10/24 10:39:31;;;;;;;8.48;2.25;;;14.50;82.30;;;;;;5077055;28;20052;-59
2021/10/24 10:42:27;;;;;;;3.30;1.35;;;14.50;83.60;;;;;;5077578;28;20083;-59
2021/10/24 10:45:14;;;;;;;5.13;2.40;;;14.40;82.70;;;;;;5072069;28;20413;-59
2021/10/24 10:47:57;;;;;;;9.55;1.83;;;14.40;84.90;;;;;;5075607;28;20047;-59
2021/10/24 10:50:31;;;;;;;6.15;2.42;;;14.50;83.40;;;;;;5069368;28;20978;-59
2021/10/24 10:53:01;;;;;;;;;;;14.50;83.60;;;;;;5075104;28;20123;-60
2021/10/24 10:55:51;;;;;;;4.63;1.58;;;14.60;83.00;;;;;;5077996;28;20560;-59
2021/10/24 10:58:34;;;;;;;8.57;1.52;;;14.70;82.30;;;;;;5071817;28;20552;-59
2021/10/24 11:01:01;;;;;;;4.05;1.77;;;14.80;79.50;;;;;;5078326;28;20154;-59
2021/10/24 11:03:44;;;;;;;3.50;1.80;;;14.90;80.30;;;;;;5076351;28;20052;-59
2021/10/24 11:06:31;;;;;;;8.67;2.63;;;14.90;78.80;;;;;;5076852;28;20577;-59
2021/10/24 11:09:04;;;;;;;4.28;1.52;;;15.00;80.30;;;;;;5071964;28;20032;-59
2021/10/24 11:11:40;;;;;;;6.65;1.98;;;15.00;79.90;;;;;;5075483;28;20456;-59
2021/10/24 11:14:10;;;;;;;3.53;1.08;;;15.10;79.00;;;;;;5074747;28;20072;-59
2021/10/24 11:16:50;;;;;;;4.38;1.48;;;15.20;78.10;;;;;;5076660;28;20106;-58
2021/10/24 11:19:26;;;;;;;4.82;1.67;;;15.30;77.90;;;;;;5076354;28;20059;-59
2021/10/24 11:21:53;;;;;;;3.08;1.38;;;15.20;77.30;;;;;;5076498;28;20083;-59
2021/10/24 11:24:20;;;;;;;4.32;1.40;;;15.30;79.10;;;;;;5073490;28;20182;-59
2021/10/24 11:26:56;;;;;;;5.40;1.30;;;15.50;79.30;;;;;;5056217;28;20131;-59
2021/10/24 11:29:23;;;;;;;5.68;1.15;;;15.60;77.20;;;;;;5074355;28;20075;-59
2021/10/24 11:32:13;;;;;;;4.63;1.27;;;15.60;77.70;;;;;;5075553;28;20135;-58
2021/10/24 11:34:40;;;;;;;2.03;1.10;;;15.80;74.40;;;;;;5077065;28;20374;-58
2021/10/24 11:37:08;;;;;;;7.53;2.08;;;16.00;78.60;;;;;;5077067;28;20131;-58
2021/10/24 11:39:43;;;;;;;3.97;1.50;;;16.10;75.90;;;;;;5071770;28;20151;-60
2021/10/24 11:42:15;;;;;;;2.92;1.27;;;16.10;76.50;;;;;;5072508;28;20334;-59
2021/10/24 11:44:43;;;;;;;5.13;1.53;;;16.30;74.90;;;;;;5073180;28;20048;-58
2021/10/24 11:47:11;;;;;;;3.20;1.33;;;16.30;75.90;;;;;;5072190;28;20568;-58
2021/10/24 11:49:56;;;;;;;5.43;1.50;;;16.30;74.70;;;;;;5072658;28;20435;-58
2021/10/24 11:52:26;;;;;;;4.15;1.35;;;16.10;74.60;;;;;;5074091;28;20126;-58
2021/10/24 11:55:10;;;;;;;4.07;1.40;;;16.00;76.10;;;;;;5073117;28;20079;-58
2021/10/24 12:00:27;;;;;;;3.70;1.60;;;15.80;76.80;;;;;;5075425;28;20422;-58
2021/10/24 12:03:00;;;;;;;3.38;1.50;;;15.80;77.60;;;;;;5074838;28;20059;-57
2021/10/24 12:05:28;;;;;;;3.67;1.55;;;15.60;75.20;;;;;;5078116;28;20536;-58
2021/10/24 12:07:57;;;;;;;4.28;1.60;;;15.50;75.90;;;;;;5080198;28;20048;-58
2021/10/24 12:10:40;;;;;;;2.75;1.45;;;15.30;76.60;;;;;;5078036;28;20515;-58
2021/10/24 12:13:30;;;;;;;6.70;1.55;;;15.40;74.70;;;;;;5077237;28;20056;-58
2021/10/24 12:15:56;;;;;;;6.25;2.03;;;15.60;75.50;;;;;;5080153;28;20503;-60
2021/10/24 12:18:38;;;;;;;5.22;1.75;;;15.70;76.20;;;;;;5081649;28;20047;-58
2021/10/24 12:21:05;;;;;;;5.00;1.88;;;15.70;74.20;;;;;;5081345;28;20522;-59
2021/10/24 12:23:37;;;;;;;4.28;1.63;;;15.80;76.40;;;;;;5081954;28;20079;-59
2021/10/24 12:26:06;;;;;;;4.80;2.25;;;15.90;76.60;;;;;;5082090;28;20052;-59
2021/10/24 12:28:37;;;;;;;3.53;1.67;;;16.00;74.60;;;;;;5081594;28;20155;-59
2021/10/24 12:31:06;;;;;;;4.38;1.23;;;15.90;74.50;;;;;;5081563;28;20060;-58
2021/10/24 12:33:39;;;;;;;4.95;1.88;;;15.80;75.20;;;;;;5081850;28;20138;-58
2021/10/24 12:36:14;;;;;;;4.05;1.55;;;15.70;75.10;;;;;;5082197;28;20055;-59
2021/10/24 12:38:48;;;;;;;7.10;2.33;;;15.80;75.40;;;;;;5073491;28;20491;-58
2021/10/24 12:41:17;;;;;;;3.67;1.65;;;15.80;75.40;;;;;;5082266;28;20129;-59
2021/10/24 12:43:50;;;;;;;4.05;1.50;;;16.10;76.60;;;;;;5079901;28;20131;-58
2021/10/24 12:46:30;;;;;;;5.50;1.65;;;16.20;74.50;;;;;;5082171;28;20051;-59
2021/10/24 12:48:57;;;;;;;6.68;1.90;;;16.10;74.20;;;;;;5081668;28;20224;-59
2021/10/24 12:51:27;;;;;;;7.25;2.58;;;16.00;76.20;;;;;;5082142;28;20120;-58
2021/10/24 12:53:55;;;;;;;4.28;1.85;;;15.90;76.40;;;;;;5081205;28;20138;-59
2021/10/24 12:56:22;;;;;;;2.22;1.15;;;15.80;77.20;;;;;;5081494;28;20070;-58
2021/10/24 12:58:50;;;;;;;4.95;1.48;;;15.70;76.30;;;;;;5080775;28;20079;-59
2021/10/24 13:01:43;;;;;;;4.78;1.60;;;15.60;76.60;;;;;;5081568;28;20092;-59